Terminal Aerodrome Forecast
Issued by NWS Jackson, MS

Home | Current Version | Previous Version | Text Only | Print | Product List | Glossary On
Versions: 1 2 3 4 5 6 7 8 9 10 11 12 13 14
000
FTUS44 KJAN 202300
TAFMEI
TAF
KMEI 202320Z 2100/2124 02005KT P6SM FEW025 SCT250
     FM210500 03003KT 5SM BR SCT020 BKN250
     FM210800 02004KT 5SM BR BKN020 OVC250
     FM211630 06005KT P6SM SCT025 BKN250=

USA.gov is the U.S. government's official web portal to all federal, state and local government web resources and services.